首页
METAR-TAF:

METAR-TAF

机场 :

洛杉磯國際機場

洛杉矶, 加利福尼亚州, 美国

纬度: 33-56-17N, 经度: 118-23-20W, 海拔: 38米

当前天气观测

该预报发布于33分钟前的06:20 UTC
风速4节,风向多变
温度 21°C
湿度 78%
气压 1016 hPa
能見度: 16.1公里
少量云层高于1100英尺
多云层高于1700英尺

METAR: KLAX 180620Z VRB04KT 10SM FEW011 BKN017 21/17 A3000 RMK AO2 T02060172

时间: 23:53 (06:53 UTC)

预报

该预报发布于51分钟前的06:02 UTC
预报有效从18日的 06点(UTC)到 19日的 12点(UTC)
风速7节,风向西转西南
能見度: 10公里
散云层高于800英尺
从 18日的 0800点(UTC)
风速3节,风向多变
能見度: 10公里
阴天层高于1000英尺
从 18日的 1500点(UTC)
风速6节,风向西转西南
能見度: 10公里
阴天层高于1500英尺
从 18日的 2000点(UTC)
风速10节,风向西
能見度: 10公里
散云层高于10000英尺
多云层高于25000英尺
从 19日的 0300点(UTC)
风速8节,风向西
能見度: 10公里
多云层高于10000英尺
多云层高于25000英尺
从 19日的 0900点(UTC)
风速3节,风向多变
能見度: 10公里
阴天层高于1500英尺

TAF: KLAX 180602Z 1806/1912 25007KT P6SM SCT008 FM180800 VRB03KT P6SM OVC010 FM181500 25006KT P6SM OVC015 FM182000 26010KT P6SM SCT100 BKN250 FM190300 26008KT P6SM BKN100 BKN250 FM190900 VRB03KT P6SM OVC015

超过4000个机场的气象观测和天气预报(METAR&TAF报告)。

可查询的气象台以黄色和红色小点在地图上表示。

将鼠标移到小点上方,可查看气象台名称。

然后点击查看天气观测和预报。

如需切换地图:点击带黑十字的绿色按钮放大地图;点击带横线的绿色按钮缩小地图;或者点击绿色箭头查看邻近地区的地图。


METAR-TAF: